sensor_id;sensor_type;location;lat;lon;timestamp;P1;durP1;ratioP1;P2;durP2;ratioP2
76171;SDS011;64929;51.178;4.138;2023-02-15T00:01:49;45.05;;;22.83;;
76171;SDS011;64929;51.178;4.138;2023-02-15T00:04:17;49.60;;;23.42;;
76171;SDS011;64929;51.178;4.138;2023-02-15T00:06:44;45.80;;;22.95;;
76171;SDS011;64929;51.178;4.138;2023-02-15T00:09:10;41.88;;;21.38;;
76171;SDS011;64929;51.178;4.138;2023-02-15T00:11:37;40.92;;;21.75;;
76171;SDS011;64929;51.178;4.138;2023-02-15T00:16:38;48.28;;;21.75;;
76171;SDS011;64929;51.178;4.138;2023-02-15T00:19:04;44.83;;;22.25;;
76171;SDS011;64929;51.178;4.138;2023-02-15T00:21:32;44.70;;;22.90;;
76171;SDS011;64929;51.178;4.138;2023-02-15T00:23:59;41.80;;;21.42;;
76171;SDS011;64929;51.178;4.138;2023-02-15T00:26:26;46.58;;;21.38;;
76171;SDS011;64929;51.178;4.138;2023-02-15T00:28:52;40.58;;;20.77;;
76171;SDS011;64929;51.178;4.138;2023-02-15T00:31:19;39.55;;;20.05;;
76171;SDS011;64929;51.178;4.138;2023-02-15T00:33:45;40.67;;;20.52;;
76171;SDS011;64929;51.178;4.138;2023-02-15T00:36:11;41.08;;;20.40;;
76171;SDS011;64929;51.178;4.138;2023-02-15T00:38:37;47.08;;;21.02;;
76171;SDS011;64929;51.178;4.138;2023-02-15T00:41:04;48.38;;;20.30;;
76171;SDS011;64929;51.178;4.138;2023-02-15T00:43:31;43.38;;;22.08;;
76171;SDS011;64929;51.178;4.138;2023-02-15T00:45:58;42.22;;;21.00;;
76171;SDS011;64929;51.178;4.138;2023-02-15T00:48:24;44.47;;;20.67;;
76171;SDS011;64929;51.178;4.138;2023-02-15T00:50:50;39.63;;;20.58;;
76171;SDS011;64929;51.178;4.138;2023-02-15T00:53:17;43.45;;;22.42;;
76171;SDS011;64929;51.178;4.138;2023-02-15T00:55:43;41.50;;;19.75;;
76171;SDS011;64929;51.178;4.138;2023-02-15T00:58:09;41.38;;;19.83;;
76171;SDS011;64929;51.178;4.138;2023-02-15T01:00:36;42.92;;;20.45;;
76171;SDS011;64929;51.178;4.138;2023-02-15T01:03:03;44.65;;;20.95;;
76171;SDS011;64929;51.178;4.138;2023-02-15T01:05:30;45.72;;;20.70;;
76171;SDS011;64929;51.178;4.138;2023-02-15T01:07:57;46.13;;;21.35;;
76171;SDS011;64929;51.178;4.138;2023-02-15T01:10:24;36.25;;;19.65;;
76171;SDS011;64929;51.178;4.138;2023-02-15T01:12:51;48.00;;;22.38;;
76171;SDS011;64929;51.178;4.138;2023-02-15T01:15:17;43.60;;;21.45;;
76171;SDS011;64929;51.178;4.138;2023-02-15T01:17:43;47.67;;;22.00;;
76171;SDS011;64929;51.178;4.138;2023-02-15T01:20:14;44.03;;;21.00;;
76171;SDS011;64929;51.178;4.138;2023-02-15T01:22:40;40.15;;;20.20;;
76171;SDS011;64929;51.178;4.138;2023-02-15T01:25:06;42.90;;;20.08;;
76171;SDS011;64929;51.178;4.138;2023-02-15T01:27:31;43.95;;;21.27;;
76171;SDS011;64929;51.178;4.138;2023-02-15T01:29:57;45.15;;;20.88;;
76171;SDS011;64929;51.178;4.138;2023-02-15T01:32:23;48.28;;;21.00;;
76171;SDS011;64929;51.178;4.138;2023-02-15T01:34:48;46.35;;;20.27;;
76171;SDS011;64929;51.178;4.138;2023-02-15T01:37:14;45.13;;;22.08;;
76171;SDS011;64929;51.178;4.138;2023-02-15T01:39:40;40.28;;;20.40;;
76171;SDS011;64929;51.178;4.138;2023-02-15T01:42:07;42.42;;;21.23;;
76171;SDS011;64929;51.178;4.138;2023-02-15T01:49:47;43.95;;;21.50;;
76171;SDS011;64929;51.178;4.138;2023-02-15T01:52:16;37.35;;;19.00;;
76171;SDS011;64929;51.178;4.138;2023-02-15T01:54:44;42.00;;;20.77;;
76171;SDS011;64929;51.178;4.138;2023-02-15T01:57:12;42.03;;;20.60;;
76171;SDS011;64929;51.178;4.138;2023-02-15T01:59:42;47.30;;;21.00;;
76171;SDS011;64929;51.178;4.138;2023-02-15T02:02:13;40.33;;;20.70;;
76171;SDS011;64929;51.178;4.138;2023-02-15T02:04:44;39.47;;;19.63;;
76171;SDS011;64929;51.178;4.138;2023-02-15T02:07:21;41.38;;;20.73;;
76171;SDS011;64929;51.178;4.138;2023-02-15T02:09:49;43.05;;;20.23;;
76171;SDS011;64929;51.178;4.138;2023-02-15T02:12:16;44.55;;;21.67;;
76171;SDS011;64929;51.178;4.138;2023-02-15T02:14:43;39.03;;;19.35;;
76171;SDS011;64929;51.178;4.138;2023-02-15T02:25:12;40.78;;;19.77;;
76171;SDS011;64929;51.178;4.138;2023-02-15T02:33:49;39.33;;;19.38;;
76171;SDS011;64929;51.178;4.138;2023-02-15T02:39:07;38.13;;;19.35;;
76171;SDS011;64929;51.178;4.138;2023-02-15T02:44:17;38.58;;;18.25;;
76171;SDS011;64929;51.178;4.138;2023-02-15T02:46:57;40.13;;;18.88;;
76171;SDS011;64929;51.178;4.138;2023-02-15T02:49:36;35.53;;;17.88;;
76171;SDS011;64929;51.178;4.138;2023-02-15T02:52:33;42.25;;;19.90;;
76171;SDS011;64929;51.178;4.138;2023-02-15T02:55:19;35.00;;;17.75;;
76171;SDS011;64929;51.178;4.138;2023-02-15T02:58:03;41.08;;;18.65;;
76171;SDS011;64929;51.178;4.138;2023-02-15T03:00:51;39.65;;;19.02;;
76171;SDS011;64929;51.178;4.138;2023-02-15T03:03:20;35.65;;;18.25;;
76171;SDS011;64929;51.178;4.138;2023-02-15T03:05:54;42.53;;;18.10;;
76171;SDS011;64929;51.178;4.138;2023-02-15T03:08:25;40.53;;;19.00;;
76171;SDS011;64929;51.178;4.138;2023-02-15T03:10:59;35.75;;;19.00;;
76171;SDS011;64929;51.178;4.138;2023-02-15T03:13:26;42.13;;;19.25;;
76171;SDS011;64929;51.178;4.138;2023-02-15T03:15:53;34.03;;;18.40;;
76171;SDS011;64929;51.178;4.138;2023-02-15T03:18:40;37.20;;;17.27;;
76171;SDS011;64929;51.178;4.138;2023-02-15T03:21:17;36.60;;;18.42;;
76171;SDS011;64929;51.178;4.138;2023-02-15T03:23:52;43.13;;;19.02;;
76171;SDS011;64929;51.178;4.138;2023-02-15T03:26:25;37.28;;;17.65;;
76171;SDS011;64929;51.178;4.138;2023-02-15T03:28:54;39.40;;;18.75;;
76171;SDS011;64929;51.178;4.138;2023-02-15T03:31:22;41.47;;;19.02;;
76171;SDS011;64929;51.178;4.138;2023-02-15T03:33:58;40.20;;;18.43;;
76171;SDS011;64929;51.178;4.138;2023-02-15T03:41:34;38.83;;;19.98;;
76171;SDS011;64929;51.178;4.138;2023-02-15T03:44:11;43.97;;;19.77;;
76171;SDS011;64929;51.178;4.138;2023-02-15T03:46:45;45.00;;;19.10;;
76171;SDS011;64929;51.178;4.138;2023-02-15T03:49:27;40.90;;;17.65;;
76171;SDS011;64929;51.178;4.138;2023-02-15T03:52:02;37.05;;;19.13;;
76171;SDS011;64929;51.178;4.138;2023-02-15T03:54:31;35.83;;;16.75;;
76171;SDS011;64929;51.178;4.138;2023-02-15T04:00:11;36.90;;;19.08;;
76171;SDS011;64929;51.178;4.138;2023-02-15T04:05:35;44.80;;;19.52;;
76171;SDS011;64929;51.178;4.138;2023-02-15T04:08:01;41.80;;;19.00;;
76171;SDS011;64929;51.178;4.138;2023-02-15T04:10:27;36.28;;;17.35;;
76171;SDS011;64929;51.178;4.138;2023-02-15T04:13:11;44.38;;;18.20;;
76171;SDS011;64929;51.178;4.138;2023-02-15T04:15:37;37.97;;;17.55;;
76171;SDS011;64929;51.178;4.138;2023-02-15T04:18:21;33.88;;;18.30;;
76171;SDS011;64929;51.178;4.138;2023-02-15T04:21:06;38.83;;;19.27;;
76171;SDS011;64929;51.178;4.138;2023-02-15T04:23:49;37.85;;;17.20;;
76171;SDS011;64929;51.178;4.138;2023-02-15T04:26:34;43.13;;;17.08;;
76171;SDS011;64929;51.178;4.138;2023-02-15T04:28:59;35.35;;;18.13;;
76171;SDS011;64929;51.178;4.138;2023-02-15T04:31:25;44.38;;;19.30;;
76171;SDS011;64929;51.178;4.138;2023-02-15T04:33:51;41.78;;;19.08;;
76171;SDS011;64929;51.178;4.138;2023-02-15T04:36:16;42.85;;;18.75;;
76171;SDS011;64929;51.178;4.138;2023-02-15T04:38:42;36.47;;;18.63;;
76171;SDS011;64929;51.178;4.138;2023-02-15T04:41:07;37.90;;;18.13;;
76171;SDS011;64929;51.178;4.138;2023-02-15T04:43:35;36.15;;;17.63;;
76171;SDS011;64929;51.178;4.138;2023-02-15T04:46:01;33.90;;;18.83;;
76171;SDS011;64929;51.178;4.138;2023-02-15T04:48:26;41.17;;;18.30;;
76171;SDS011;64929;51.178;4.138;2023-02-15T04:50:52;38.42;;;17.50;;
76171;SDS011;64929;51.178;4.138;2023-02-15T04:53:18;40.92;;;18.73;;
76171;SDS011;64929;51.178;4.138;2023-02-15T04:55:43;34.25;;;18.15;;
76171;SDS011;64929;51.178;4.138;2023-02-15T04:58:09;35.50;;;17.27;;
76171;SDS011;64929;51.178;4.138;2023-02-15T05:00:35;38.47;;;17.50;;
76171;SDS011;64929;51.178;4.138;2023-02-15T05:03:00;42.75;;;17.95;;
76171;SDS011;64929;51.178;4.138;2023-02-15T05:05:26;35.75;;;17.83;;
76171;SDS011;64929;51.178;4.138;2023-02-15T05:07:52;33.45;;;17.38;;
76171;SDS011;64929;51.178;4.138;2023-02-15T05:10:18;38.22;;;17.42;;
76171;SDS011;64929;51.178;4.138;2023-02-15T05:12:43;38.80;;;17.90;;
76171;SDS011;64929;51.178;4.138;2023-02-15T05:15:09;34.83;;;17.35;;
76171;SDS011;64929;51.178;4.138;2023-02-15T05:17:35;42.05;;;18.45;;
76171;SDS011;64929;51.178;4.138;2023-02-15T05:20:00;35.80;;;17.35;;
76171;SDS011;64929;51.178;4.138;2023-02-15T05:22:26;33.92;;;17.08;;
76171;SDS011;64929;51.178;4.138;2023-02-15T05:24:52;34.65;;;16.90;;
76171;SDS011;64929;51.178;4.138;2023-02-15T05:27:36;32.60;;;15.95;;
76171;SDS011;64929;51.178;4.138;2023-02-15T05:30:20;41.67;;;17.20;;
76171;SDS011;64929;51.178;4.138;2023-02-15T05:32:45;35.13;;;17.38;;
76171;SDS011;64929;51.178;4.138;2023-02-15T05:35:12;38.80;;;18.05;;
76171;SDS011;64929;51.178;4.138;2023-02-15T05:37:39;33.13;;;15.52;;
76171;SDS011;64929;51.178;4.138;2023-02-15T05:40:05;34.42;;;16.60;;
76171;SDS011;64929;51.178;4.138;2023-02-15T05:42:32;34.30;;;17.20;;
76171;SDS011;64929;51.178;4.138;2023-02-15T05:44:57;30.40;;;16.27;;
76171;SDS011;64929;51.178;4.138;2023-02-15T05:47:23;40.47;;;17.58;;
76171;SDS011;64929;51.178;4.138;2023-02-15T05:49:48;34.08;;;17.48;;
76171;SDS011;64929;51.178;4.138;2023-02-15T05:52:14;33.65;;;17.45;;
76171;SDS011;64929;51.178;4.138;2023-02-15T05:54:40;31.75;;;16.00;;
76171;SDS011;64929;51.178;4.138;2023-02-15T05:57:05;38.08;;;17.88;;
76171;SDS011;64929;51.178;4.138;2023-02-15T05:59:31;35.25;;;17.35;;
76171;SDS011;64929;51.178;4.138;2023-02-15T06:01:57;37.67;;;17.17;;
76171;SDS011;64929;51.178;4.138;2023-02-15T06:04:23;35.03;;;17.13;;
76171;SDS011;64929;51.178;4.138;2023-02-15T06:06:49;34.37;;;17.30;;
76171;SDS011;64929;51.178;4.138;2023-02-15T06:09:15;36.37;;;17.03;;
76171;SDS011;64929;51.178;4.138;2023-02-15T06:11:43;36.60;;;17.47;;
76171;SDS011;64929;51.178;4.138;2023-02-15T06:14:09;37.77;;;18.33;;
76171;SDS011;64929;51.178;4.138;2023-02-15T06:16:35;41.22;;;18.42;;
76171;SDS011;64929;51.178;4.138;2023-02-15T06:19:01;37.75;;;17.70;;
76171;SDS011;64929;51.178;4.138;2023-02-15T06:21:30;38.28;;;17.73;;
76171;SDS011;64929;51.178;4.138;2023-02-15T06:24:02;39.17;;;18.35;;
76171;SDS011;64929;51.178;4.138;2023-02-15T06:26:35;45.45;;;17.85;;
76171;SDS011;64929;51.178;4.138;2023-02-15T06:29:01;43.17;;;19.55;;
76171;SDS011;64929;51.178;4.138;2023-02-15T06:31:27;42.40;;;17.77;;
76171;SDS011;64929;51.178;4.138;2023-02-15T06:33:52;38.85;;;19.38;;
76171;SDS011;64929;51.178;4.138;2023-02-15T06:36:25;42.80;;;18.13;;
76171;SDS011;64929;51.178;4.138;2023-02-15T06:38:52;43.63;;;18.92;;
76171;SDS011;64929;51.178;4.138;2023-02-15T06:41:18;41.77;;;19.97;;
76171;SDS011;64929;51.178;4.138;2023-02-15T06:43:44;40.85;;;19.35;;
76171;SDS011;64929;51.178;4.138;2023-02-15T06:46:10;41.47;;;19.85;;
76171;SDS011;64929;51.178;4.138;2023-02-15T06:48:35;42.08;;;19.90;;
76171;SDS011;64929;51.178;4.138;2023-02-15T06:51:01;45.85;;;19.38;;
76171;SDS011;64929;51.178;4.138;2023-02-15T06:53:27;44.85;;;19.55;;
76171;SDS011;64929;51.178;4.138;2023-02-15T06:55:59;39.80;;;17.60;;
76171;SDS011;64929;51.178;4.138;2023-02-15T06:58:31;45.03;;;19.38;;
76171;SDS011;64929;51.178;4.138;2023-02-15T07:00:57;36.10;;;18.23;;
76171;SDS011;64929;51.178;4.138;2023-02-15T07:03:23;43.45;;;18.92;;
76171;SDS011;64929;51.178;4.138;2023-02-15T07:05:49;40.55;;;17.60;;
76171;SDS011;64929;51.178;4.138;2023-02-15T07:08:20;36.10;;;17.70;;
76171;SDS011;64929;51.178;4.138;2023-02-15T07:10:46;39.40;;;18.30;;
76171;SDS011;64929;51.178;4.138;2023-02-15T07:13:14;37.25;;;17.08;;
76171;SDS011;64929;51.178;4.138;2023-02-15T07:15:39;35.70;;;17.27;;
76171;SDS011;64929;51.178;4.138;2023-02-15T07:18:05;33.97;;;16.63;;
76171;SDS011;64929;51.178;4.138;2023-02-15T07:20:31;34.67;;;16.45;;
76171;SDS011;64929;51.178;4.138;2023-02-15T07:22:58;39.67;;;18.20;;
76171;SDS011;64929;51.178;4.138;2023-02-15T07:25:24;42.35;;;18.27;;
76171;SDS011;64929;51.178;4.138;2023-02-15T07:27:55;37.33;;;18.58;;
76171;SDS011;64929;51.178;4.138;2023-02-15T07:30:24;37.55;;;17.63;;
76171;SDS011;64929;51.178;4.138;2023-02-15T07:32:50;35.90;;;17.73;;
76171;SDS011;64929;51.178;4.138;2023-02-15T07:35:37;36.42;;;18.20;;
76171;SDS011;64929;51.178;4.138;2023-02-15T07:38:03;33.65;;;16.85;;
76171;SDS011;64929;51.178;4.138;2023-02-15T07:40:29;36.55;;;17.17;;
76171;SDS011;64929;51.178;4.138;2023-02-15T07:42:56;34.22;;;17.98;;
76171;SDS011;64929;51.178;4.138;2023-02-15T07:45:24;41.28;;;16.33;;
76171;SDS011;64929;51.178;4.138;2023-02-15T07:47:49;32.78;;;17.25;;
76171;SDS011;64929;51.178;4.138;2023-02-15T07:50:15;36.78;;;17.33;;
76171;SDS011;64929;51.178;4.138;2023-02-15T07:52:41;37.38;;;17.65;;
76171;SDS011;64929;51.178;4.138;2023-02-15T07:55:06;36.65;;;17.83;;
76171;SDS011;64929;51.178;4.138;2023-02-15T07:57:33;39.92;;;18.95;;
76171;SDS011;64929;51.178;4.138;2023-02-15T07:59:59;39.88;;;16.20;;
76171;SDS011;64929;51.178;4.138;2023-02-15T08:02:25;36.03;;;17.05;;
76171;SDS011;64929;51.178;4.138;2023-02-15T08:04:51;43.67;;;18.98;;
76171;SDS011;64929;51.178;4.138;2023-02-15T08:07:16;41.45;;;19.85;;
76171;SDS011;64929;51.178;4.138;2023-02-15T08:09:42;40.40;;;20.33;;
76171;SDS011;64929;51.178;4.138;2023-02-15T08:12:07;46.40;;;21.23;;
76171;SDS011;64929;51.178;4.138;2023-02-15T08:14:33;45.10;;;19.52;;
76171;SDS011;64929;51.178;4.138;2023-02-15T08:16:59;42.15;;;20.05;;
76171;SDS011;64929;51.178;4.138;2023-02-15T08:19:31;40.08;;;19.65;;
76171;SDS011;64929;51.178;4.138;2023-02-15T08:21:58;35.63;;;17.52;;
76171;SDS011;64929;51.178;4.138;2023-02-15T08:24:26;40.72;;;18.98;;
76171;SDS011;64929;51.178;4.138;2023-02-15T08:26:53;47.22;;;19.13;;
76171;SDS011;64929;51.178;4.138;2023-02-15T08:32:42;37.88;;;17.92;;
76171;SDS011;64929;51.178;4.138;2023-02-15T08:35:08;39.55;;;18.35;;
76171;SDS011;64929;51.178;4.138;2023-02-15T08:37:34;41.22;;;19.00;;
76171;SDS011;64929;51.178;4.138;2023-02-15T08:40:00;40.47;;;19.08;;
76171;SDS011;64929;51.178;4.138;2023-02-15T08:42:27;39.75;;;17.85;;
76171;SDS011;64929;51.178;4.138;2023-02-15T08:44:53;32.83;;;16.70;;
76171;SDS011;64929;51.178;4.138;2023-02-15T08:47:18;40.15;;;19.15;;
76171;SDS011;64929;51.178;4.138;2023-02-15T08:49:44;39.42;;;19.15;;
76171;SDS011;64929;51.178;4.138;2023-02-15T08:52:10;40.38;;;19.77;;
76171;SDS011;64929;51.178;4.138;2023-02-15T08:54:35;40.97;;;18.58;;
76171;SDS011;64929;51.178;4.138;2023-02-15T08:57:01;36.75;;;19.35;;
76171;SDS011;64929;51.178;4.138;2023-02-15T08:59:27;37.45;;;17.42;;
76171;SDS011;64929;51.178;4.138;2023-02-15T09:01:53;41.80;;;19.52;;
76171;SDS011;64929;51.178;4.138;2023-02-15T09:04:19;41.10;;;19.38;;
76171;SDS011;64929;51.178;4.138;2023-02-15T09:06:47;40.72;;;19.35;;
76171;SDS011;64929;51.178;4.138;2023-02-15T09:09:14;37.45;;;18.05;;
76171;SDS011;64929;51.178;4.138;2023-02-15T09:11:41;39.50;;;19.60;;
76171;SDS011;64929;51.178;4.138;2023-02-15T09:14:10;42.55;;;20.80;;
76171;SDS011;64929;51.178;4.138;2023-02-15T09:16:38;37.87;;;18.87;;
76171;SDS011;64929;51.178;4.138;2023-02-15T09:19:05;62.88;;;25.75;;
76171;SDS011;64929;51.178;4.138;2023-02-15T09:21:31;66.00;;;29.52;;
76171;SDS011;64929;51.178;4.138;2023-02-15T09:23:59;41.00;;;21.50;;
76171;SDS011;64929;51.178;4.138;2023-02-15T09:26:27;39.85;;;17.88;;
76171;SDS011;64929;51.178;4.138;2023-02-15T09:28:55;38.40;;;19.23;;
76171;SDS011;64929;51.178;4.138;2023-02-15T09:31:25;43.40;;;19.27;;
76171;SDS011;64929;51.178;4.138;2023-02-15T09:33:53;38.97;;;17.98;;
76171;SDS011;64929;51.178;4.138;2023-02-15T09:36:21;42.50;;;20.35;;
76171;SDS011;64929;51.178;4.138;2023-02-15T09:39:08;43.27;;;22.13;;
76171;SDS011;64929;51.178;4.138;2023-02-15T09:44:35;43.13;;;15.60;;
76171;SDS011;64929;51.178;4.138;2023-02-15T09:55:17;46.42;;;18.98;;
76171;SDS011;64929;51.178;4.138;2023-02-15T10:20:05;39.25;;;17.92;;
76171;SDS011;64929;51.178;4.138;2023-02-15T10:25:40;56.75;;;22.40;;
76171;SDS011;64929;51.178;4.138;2023-02-15T10:33:48;37.70;;;17.33;;
76171;SDS011;64929;51.178;4.138;2023-02-15T10:42:02;43.10;;;21.05;;
76171;SDS011;64929;51.178;4.138;2023-02-15T10:44:50;34.55;;;16.95;;
76171;SDS011;64929;51.178;4.138;2023-02-15T10:56:05;40.47;;;18.27;;
76171;SDS011;64929;51.178;4.138;2023-02-15T11:01:31;46.55;;;20.48;;
76171;SDS011;64929;51.178;4.138;2023-02-15T11:06:41;35.25;;;16.27;;
76171;SDS011;64929;51.178;4.138;2023-02-15T11:09:16;29.02;;;14.13;;
76171;SDS011;64929;51.178;4.138;2023-02-15T11:11:48;30.83;;;14.68;;
76171;SDS011;64929;51.178;4.138;2023-02-15T11:17:07;29.08;;;14.27;;
76171;SDS011;64929;51.178;4.138;2023-02-15T11:19:38;32.20;;;15.63;;
76171;SDS011;64929;51.178;4.138;2023-02-15T11:22:12;29.10;;;14.65;;
76171;SDS011;64929;51.178;4.138;2023-02-15T11:24:40;32.25;;;14.98;;
76171;SDS011;64929;51.178;4.138;2023-02-15T11:32:44;30.00;;;15.07;;
76171;SDS011;64929;51.178;4.138;2023-02-15T11:37:45;27.45;;;13.18;;
76171;SDS011;64929;51.178;4.138;2023-02-15T11:40:17;29.33;;;14.02;;
76171;SDS011;64929;51.178;4.138;2023-02-15T11:42:45;24.10;;;12.20;;
76171;SDS011;64929;51.178;4.138;2023-02-15T11:47:54;24.27;;;13.80;;
76171;SDS011;64929;51.178;4.138;2023-02-15T11:50:27;27.20;;;13.27;;
76171;SDS011;64929;51.178;4.138;2023-02-15T11:52:58;27.42;;;13.77;;
76171;SDS011;64929;51.178;4.138;2023-02-15T11:55:26;27.92;;;13.23;;
76171;SDS011;64929;51.178;4.138;2023-02-15T12:00:46;28.85;;;14.00;;
76171;SDS011;64929;51.178;4.138;2023-02-15T12:03:23;26.67;;;12.70;;
76171;SDS011;64929;51.178;4.138;2023-02-15T12:05:57;26.00;;;12.18;;
76171;SDS011;64929;51.178;4.138;2023-02-15T12:08:26;27.35;;;13.27;;
76171;SDS011;64929;51.178;4.138;2023-02-15T12:11:09;28.02;;;12.68;;
76171;SDS011;64929;51.178;4.138;2023-02-15T12:13:53;24.63;;;13.02;;
76171;SDS011;64929;51.178;4.138;2023-02-15T12:16:22;23.40;;;13.00;;
76171;SDS011;64929;51.178;4.138;2023-02-15T12:18:48;27.25;;;14.02;;
76171;SDS011;64929;51.178;4.138;2023-02-15T12:21:27;25.70;;;12.18;;
76171;SDS011;64929;51.178;4.138;2023-02-15T12:23:55;22.83;;;12.25;;
76171;SDS011;64929;51.178;4.138;2023-02-15T12:26:24;25.60;;;12.65;;
76171;SDS011;64929;51.178;4.138;2023-02-15T12:28:59;26.83;;;13.15;;
76171;SDS011;64929;51.178;4.138;2023-02-15T12:31:39;25.48;;;12.40;;
76171;SDS011;64929;51.178;4.138;2023-02-15T12:34:11;24.85;;;13.52;;
76171;SDS011;64929;51.178;4.138;2023-02-15T12:36:47;28.67;;;13.15;;
76171;SDS011;64929;51.178;4.138;2023-02-15T12:39:22;25.67;;;12.85;;
76171;SDS011;64929;51.178;4.138;2023-02-15T12:44:26;29.17;;;13.43;;
76171;SDS011;64929;51.178;4.138;2023-02-15T12:47:03;25.17;;;12.77;;
76171;SDS011;64929;51.178;4.138;2023-02-15T12:49:36;26.63;;;13.48;;
76171;SDS011;64929;51.178;4.138;2023-02-15T12:52:04;25.85;;;12.80;;
76171;SDS011;64929;51.178;4.138;2023-02-15T12:54:40;28.60;;;13.95;;
76171;SDS011;64929;51.178;4.138;2023-02-15T12:59:51;27.80;;;12.55;;
76171;SDS011;64929;51.178;4.138;2023-02-15T13:02:21;24.58;;;12.50;;
76171;SDS011;64929;51.178;4.138;2023-02-15T13:04:52;25.20;;;13.65;;
76171;SDS011;64929;51.178;4.138;2023-02-15T13:07:18;23.27;;;12.25;;
76171;SDS011;64929;51.178;4.138;2023-02-15T13:09:45;32.22;;;14.27;;
76171;SDS011;64929;51.178;4.138;2023-02-15T13:12:17;26.67;;;14.50;;
76171;SDS011;64929;51.178;4.138;2023-02-15T13:14:49;31.98;;;14.82;;
76171;SDS011;64929;51.178;4.138;2023-02-15T13:17:17;31.58;;;15.68;;
76171;SDS011;64929;51.178;4.138;2023-02-15T13:19:50;29.30;;;14.40;;
76171;SDS011;64929;51.178;4.138;2023-02-15T13:22:24;29.55;;;14.05;;
76171;SDS011;64929;51.178;4.138;2023-02-15T13:25:40;28.35;;;13.32;;
76171;SDS011;64929;51.178;4.138;2023-02-15T13:30:37;28.70;;;14.18;;
76171;SDS011;64929;51.178;4.138;2023-02-15T13:33:17;28.27;;;15.35;;
76171;SDS011;64929;51.178;4.138;2023-02-15T13:36:00;27.65;;;13.88;;
76171;SDS011;64929;51.178;4.138;2023-02-15T13:41:03;31.83;;;15.57;;
76171;SDS011;64929;51.178;4.138;2023-02-15T13:43:35;32.65;;;15.00;;
76171;SDS011;64929;51.178;4.138;2023-02-15T13:49:00;31.75;;;15.27;;
76171;SDS011;64929;51.178;4.138;2023-02-15T13:51:50;33.10;;;15.90;;
76171;SDS011;64929;51.178;4.138;2023-02-15T14:07:59;27.92;;;13.98;;
76171;SDS011;64929;51.178;4.138;2023-02-15T14:16:11;26.95;;;13.95;;
76171;SDS011;64929;51.178;4.138;2023-02-15T14:24:27;26.65;;;13.43;;
76171;SDS011;64929;51.178;4.138;2023-02-15T14:27:04;25.92;;;13.02;;
76171;SDS011;64929;51.178;4.138;2023-02-15T14:29:46;28.52;;;13.18;;
76171;SDS011;64929;51.178;4.138;2023-02-15T14:32:16;33.00;;;15.40;;
76171;SDS011;64929;51.178;4.138;2023-02-15T14:35:04;27.95;;;14.30;;
76171;SDS011;64929;51.178;4.138;2023-02-15T14:37:52;33.60;;;13.98;;
76171;SDS011;64929;51.178;4.138;2023-02-15T14:54:08;26.17;;;13.18;;
76171;SDS011;64929;51.178;4.138;2023-02-15T14:56:46;24.67;;;12.98;;
76171;SDS011;64929;51.178;4.138;2023-02-15T15:02:30;28.38;;;13.07;;
76171;SDS011;64929;51.178;4.138;2023-02-15T15:05:09;29.23;;;14.23;;
76171;SDS011;64929;51.178;4.138;2023-02-15T15:07:54;26.02;;;13.07;;
76171;SDS011;64929;51.178;4.138;2023-02-15T15:12:58;31.58;;;14.35;;
76171;SDS011;64929;51.178;4.138;2023-02-15T15:15:44;24.33;;;13.07;;
76171;SDS011;64929;51.178;4.138;2023-02-15T15:18:42;26.00;;;13.85;;
76171;SDS011;64929;51.178;4.138;2023-02-15T15:22:02;27.58;;;14.32;;
76171;SDS011;64929;51.178;4.138;2023-02-15T15:24:34;30.33;;;14.23;;
76171;SDS011;64929;51.178;4.138;2023-02-15T15:32:49;25.75;;;13.23;;
76171;SDS011;64929;51.178;4.138;2023-02-15T15:38:14;26.95;;;13.65;;
76171;SDS011;64929;51.178;4.138;2023-02-15T15:43:30;28.08;;;13.65;;
76171;SDS011;64929;51.178;4.138;2023-02-15T15:48:55;23.92;;;12.73;;
76171;SDS011;64929;51.178;4.138;2023-02-15T15:51:39;28.35;;;14.35;;
76171;SDS011;64929;51.178;4.138;2023-02-15T15:54:11;31.70;;;14.23;;
76171;SDS011;64929;51.178;4.138;2023-02-15T15:56:55;24.80;;;13.38;;
76171;SDS011;64929;51.178;4.138;2023-02-15T15:59:26;28.85;;;14.38;;
76171;SDS011;64929;51.178;4.138;2023-02-15T16:01:55;28.35;;;13.85;;
76171;SDS011;64929;51.178;4.138;2023-02-15T16:04:22;29.30;;;13.60;;
76171;SDS011;64929;51.178;4.138;2023-02-15T16:06:54;31.13;;;15.63;;
76171;SDS011;64929;51.178;4.138;2023-02-15T16:09:23;39.28;;;16.15;;
76171;SDS011;64929;51.178;4.138;2023-02-15T16:11:54;30.75;;;16.35;;
76171;SDS011;64929;51.178;4.138;2023-02-15T16:14:31;33.28;;;17.23;;
76171;SDS011;64929;51.178;4.138;2023-02-15T16:17:00;31.38;;;15.88;;
76171;SDS011;64929;51.178;4.138;2023-02-15T16:19:29;32.40;;;16.13;;
76171;SDS011;64929;51.178;4.138;2023-02-15T16:22:01;30.48;;;15.75;;
76171;SDS011;64929;51.178;4.138;2023-02-15T16:30:19;32.80;;;16.98;;
76171;SDS011;64929;51.178;4.138;2023-02-15T16:32:48;30.35;;;16.05;;
76171;SDS011;64929;51.178;4.138;2023-02-15T16:35:18;33.78;;;16.08;;
76171;SDS011;64929;51.178;4.138;2023-02-15T16:37:45;32.83;;;17.48;;
76171;SDS011;64929;51.178;4.138;2023-02-15T16:42:50;36.13;;;18.70;;
76171;SDS011;64929;51.178;4.138;2023-02-15T16:45:17;33.95;;;17.92;;
76171;SDS011;64929;51.178;4.138;2023-02-15T16:47:46;35.13;;;18.60;;
76171;SDS011;64929;51.178;4.138;2023-02-15T16:50:26;37.97;;;17.15;;
76171;SDS011;64929;51.178;4.138;2023-02-15T16:52:56;36.30;;;18.17;;
76171;SDS011;64929;51.178;4.138;2023-02-15T16:55:24;32.72;;;17.10;;
76171;SDS011;64929;51.178;4.138;2023-02-15T16:57:51;34.03;;;18.48;;
76171;SDS011;64929;51.178;4.138;2023-02-15T17:00:22;32.42;;;16.73;;
76171;SDS011;64929;51.178;4.138;2023-02-15T17:03:33;37.60;;;16.50;;
76171;SDS011;64929;51.178;4.138;2023-02-15T17:05:44;32.90;;;15.57;;
76171;SDS011;64929;51.178;4.138;2023-02-15T17:08:16;32.83;;;16.33;;
76171;SDS011;64929;51.178;4.138;2023-02-15T17:11:01;32.05;;;15.63;;
76171;SDS011;64929;51.178;4.138;2023-02-15T17:13:28;29.60;;;15.38;;
76171;SDS011;64929;51.178;4.138;2023-02-15T17:18:26;32.55;;;16.63;;
76171;SDS011;64929;51.178;4.138;2023-02-15T17:20:59;32.65;;;16.35;;
76171;SDS011;64929;51.178;4.138;2023-02-15T17:29:24;34.88;;;15.90;;
76171;SDS011;64929;51.178;4.138;2023-02-15T17:32:03;35.47;;;16.33;;
76171;SDS011;64929;51.178;4.138;2023-02-15T17:34:44;32.28;;;16.52;;
76171;SDS011;64929;51.178;4.138;2023-02-15T17:37:11;33.20;;;17.60;;
76171;SDS011;64929;51.178;4.138;2023-02-15T17:39:39;34.25;;;16.67;;
76171;SDS011;64929;51.178;4.138;2023-02-15T17:42:06;36.40;;;17.35;;
76171;SDS011;64929;51.178;4.138;2023-02-15T17:44:32;30.77;;;17.00;;
76171;SDS011;64929;51.178;4.138;2023-02-15T17:46:58;30.35;;;15.85;;
76171;SDS011;64929;51.178;4.138;2023-02-15T17:49:25;33.22;;;18.17;;
76171;SDS011;64929;51.178;4.138;2023-02-15T17:51:59;31.85;;;16.77;;
76171;SDS011;64929;51.178;4.138;2023-02-15T17:54:26;35.83;;;17.80;;
76171;SDS011;64929;51.178;4.138;2023-02-15T17:57:12;30.10;;;16.55;;
76171;SDS011;64929;51.178;4.138;2023-02-15T17:59:39;33.22;;;17.25;;
76171;SDS011;64929;51.178;4.138;2023-02-15T18:02:24;33.78;;;17.17;;
76171;SDS011;64929;51.178;4.138;2023-02-15T18:05:11;37.50;;;18.10;;
76171;SDS011;64929;51.178;4.138;2023-02-15T18:07:57;37.30;;;17.48;;
76171;SDS011;64929;51.178;4.138;2023-02-15T18:10:41;38.00;;;18.23;;